createdAt,value
2022-09-06T00:02:23.686Z,100866.50
2022-09-06T00:05:10.270Z,100869.09
2022-09-06T00:07:57.919Z,100870.16
2022-09-06T00:10:43.412Z,100861.28
2022-09-06T00:13:28.548Z,100859.53
2022-09-06T00:16:19.933Z,100868.66
2022-09-06T00:19:05.300Z,100872.75
2022-09-06T00:21:50.280Z,100872.75
2022-09-06T00:24:35.952Z,100870.03
2022-09-06T00:27:21.181Z,100870.88
2022-09-06T00:30:07.239Z,100868.63
2022-09-06T00:32:53.524Z,100867.50
2022-09-06T00:35:38.626Z,100874.53
2022-09-06T00:38:23.821Z,100862.94
2022-09-06T00:41:11.590Z,100864.09
2022-09-06T00:43:57.299Z,100869.41
2022-09-06T00:46:46.441Z,100859.81
2022-09-06T00:49:35.392Z,100866.22
2022-09-06T00:52:20.843Z,100861.44
2022-09-06T00:55:06.611Z,100872.19
2022-09-06T00:57:52.340Z,100867.88
2022-09-06T01:00:37.932Z,100847.44
2022-09-06T01:03:24.761Z,100854.81
2022-09-06T01:06:16.311Z,100858.28
2022-09-06T01:09:23.712Z,100851.31
2022-09-06T01:12:25.742Z,100846.56
2022-09-06T01:15:48.980Z,100854.16
2022-09-06T01:18:58.277Z,100845.63
2022-09-06T01:21:55.769Z,100844.25
2022-09-06T01:25:02.603Z,100844.47
2022-09-06T01:28:18.677Z,100839.31
2022-09-06T01:31:22.777Z,100845.84
2022-09-06T01:34:08.194Z,100828.19
2022-09-06T01:37:10.226Z,100839.59
2022-09-06T01:39:55.906Z,100839.06
2022-09-06T01:42:43.365Z,100841.56
2022-09-06T01:45:43.878Z,100842.56
2022-09-06T01:48:55.042Z,100840.78
2022-09-06T01:52:14.520Z,100826.84
2022-09-06T01:55:24.289Z,100831.19
2022-09-06T01:58:25.171Z,100840.31
2022-09-06T02:01:30.762Z,100833.84
2022-09-06T02:04:42.353Z,100827.66
2022-09-06T02:07:30.994Z,100821.66
2022-09-06T02:10:25.610Z,100821.44
2022-09-06T02:13:13.515Z,100822.63
2022-09-06T02:16:02.967Z,100818.00
2022-09-06T02:18:54.658Z,100822.53
2022-09-06T02:21:44.114Z,100830.63
2022-09-06T02:24:33.340Z,100826.56
2022-09-06T02:27:18.759Z,100825.44
2022-09-06T02:30:05.872Z,100820.69
2022-09-06T02:32:58.680Z,100826.19
2022-09-06T02:35:46.762Z,100818.19
2022-09-06T02:38:34.687Z,100830.97
2022-09-06T02:41:22.751Z,100828.50
2022-09-06T02:44:07.768Z,100826.81
2022-09-06T02:46:56.995Z,100829.25
2022-09-06T02:49:42.470Z,100830.00
2022-09-06T02:52:27.800Z,100827.50
2022-09-06T02:55:13.193Z,100822.31
2022-09-06T02:57:58.749Z,100832.06
2022-09-06T03:00:44.031Z,100845.47
2022-09-06T03:03:28.922Z,100832.91
2022-09-06T03:06:14.421Z,100832.00
2022-09-06T03:09:00.299Z,100888.41
2022-09-06T03:11:45.621Z,100904.06
2022-09-06T03:14:31.059Z,100883.56
2022-09-06T03:17:16.436Z,100872.97
2022-09-06T03:20:01.979Z,100858.00
2022-09-06T03:22:47.322Z,100864.84
2022-09-06T03:25:32.697Z,100851.59
2022-09-06T03:28:19.142Z,100845.13
2022-09-06T03:31:04.583Z,100839.88
2022-09-06T03:33:49.861Z,100844.34
2022-09-06T03:36:34.758Z,100835.38
2022-09-06T03:39:20.123Z,100837.16
2022-09-06T03:42:05.280Z,100819.28
2022-09-06T03:44:50.293Z,100824.91
2022-09-06T03:47:35.771Z,100810.75
2022-09-06T03:50:21.093Z,100812.28
2022-09-06T03:53:06.495Z,100806.44
2022-09-06T03:55:53.524Z,100814.25
2022-09-06T03:58:38.567Z,100803.56
2022-09-06T04:01:24.000Z,100797.56
2022-09-06T04:04:09.318Z,100803.78
2022-09-06T04:06:54.236Z,100802.59
2022-09-06T04:09:39.662Z,100801.16
2022-09-06T04:12:25.077Z,100797.84
2022-09-06T04:15:10.895Z,100796.75
2022-09-06T04:17:56.282Z,100803.78
2022-09-06T04:20:41.536Z,100789.59
2022-09-06T04:23:28.252Z,100798.34
2022-09-06T04:26:13.268Z,100800.34
2022-09-06T04:28:58.231Z,100810.00
2022-09-06T04:31:43.608Z,100818.09
2022-09-06T04:34:29.148Z,100829.63
2022-09-06T04:37:14.904Z,100827.00
2022-09-06T04:40:00.533Z,100820.00
2022-09-06T04:42:45.863Z,100828.66
2022-09-06T04:45:30.759Z,100826.03
2022-09-06T04:48:16.172Z,100822.38
2022-09-06T04:51:01.263Z,100820.75
2022-09-06T04:53:46.755Z,100825.94
2022-09-06T04:56:32.429Z,100834.84
2022-09-06T04:59:17.398Z,100828.66
2022-09-06T05:02:03.315Z,100834.88
2022-09-06T05:04:48.122Z,100827.63
2022-09-06T05:07:33.720Z,100832.22
2022-09-06T05:10:19.188Z,100843.81
2022-09-06T05:13:04.295Z,100841.22
2022-09-06T05:15:49.289Z,100848.28
2022-09-06T05:18:35.441Z,100860.06
2022-09-06T05:21:20.717Z,100863.44
2022-09-06T05:24:06.242Z,100867.13
2022-09-06T05:26:51.597Z,100857.44
2022-09-06T05:29:36.502Z,100860.06
2022-09-06T05:32:21.973Z,100860.44
2022-09-06T05:35:07.326Z,100872.84
2022-09-06T05:37:52.446Z,100886.00
2022-09-06T05:40:37.338Z,100874.53
2022-09-06T05:43:22.624Z,100891.41
2022-09-06T05:46:09.001Z,100889.31
2022-09-06T05:48:56.115Z,100895.56
2022-09-06T05:51:41.487Z,100905.94
2022-09-06T05:54:26.795Z,100897.91
2022-09-06T05:57:12.255Z,100890.34
2022-09-06T05:59:57.268Z,100903.44
2022-09-06T06:02:42.844Z,100874.75
2022-09-06T06:05:28.057Z,100872.72
2022-09-06T06:08:13.157Z,100896.50
2022-09-06T06:10:59.974Z,100878.97
2022-09-06T06:13:45.899Z,100892.94
2022-09-06T06:16:31.745Z,100881.25
2022-09-06T06:19:17.129Z,100882.78
2022-09-06T06:22:02.643Z,100905.84
2022-09-06T06:24:47.697Z,100901.50
2022-09-06T06:27:32.690Z,100903.38
2022-09-06T06:30:18.770Z,100905.06
2022-09-06T06:33:04.177Z,100896.94
2022-09-06T06:36:00.856Z,100888.84
2022-09-06T06:38:46.372Z,100915.41
2022-09-06T06:41:32.791Z,100926.66
2022-09-06T06:44:17.781Z,100907.56
2022-09-06T06:47:02.820Z,100894.00
2022-09-06T06:49:48.184Z,100904.75
2022-09-06T06:52:33.212Z,100898.16
2022-09-06T06:55:18.344Z,100871.88
2022-09-06T06:58:03.742Z,100878.28
2022-09-06T07:00:49.358Z,100889.13
2022-09-06T07:03:34.856Z,100891.53
2022-09-06T07:06:21.177Z,100876.09
2022-09-06T07:09:06.357Z,100873.47
2022-09-06T07:11:52.057Z,100870.09
2022-09-06T07:14:37.019Z,100879.84
2022-09-06T07:17:22.387Z,100890.97
2022-09-06T07:20:15.481Z,100857.19
2022-09-06T07:26:14.142Z,100841.94
2022-09-06T07:29:02.644Z,100848.94
2022-09-06T07:32:17.687Z,100839.84
2022-09-06T07:34:53.127Z,100828.13
2022-09-06T07:37:38.537Z,100829.78
2022-09-06T07:40:24.483Z,100827.16
2022-09-06T07:43:09.827Z,100829.09
2022-09-06T07:46:13.026Z,100828.38
2022-09-06T07:48:58.663Z,100841.63
2022-09-06T07:51:44.003Z,100838.09
2022-09-06T07:54:31.016Z,100852.00
2022-09-06T07:57:16.499Z,100850.00
2022-09-06T08:00:04.587Z,100840.78
2022-09-06T08:02:49.763Z,100820.75
2022-09-06T08:11:45.187Z,100818.75
2022-09-06T08:14:30.431Z,100809.47
2022-09-06T08:17:15.786Z,100806.94
2022-09-06T08:20:02.664Z,100809.72
2022-09-06T08:22:47.596Z,100820.78
2022-09-06T08:25:32.615Z,100837.00
2022-09-06T08:28:17.429Z,100825.97
2022-09-06T08:31:11.763Z,100808.66
2022-09-06T08:33:58.809Z,100819.72
2022-09-06T08:36:44.058Z,100807.50
2022-09-06T08:39:29.252Z,100816.56
2022-09-06T08:42:14.547Z,100808.00
2022-09-06T08:45:01.085Z,100806.78
2022-09-06T08:47:46.413Z,100788.03
2022-09-06T08:50:32.191Z,100779.81
2022-09-06T08:53:19.225Z,100737.84
2022-09-06T08:56:29.903Z,100765.19
2022-09-06T08:59:15.341Z,100709.34
2022-09-06T09:02:13.054Z,100713.97
2022-09-06T09:05:02.430Z,100723.03
2022-09-06T09:08:04.634Z,100748.69
2022-09-06T09:11:05.717Z,100707.34
2022-09-06T09:14:00.033Z,100708.91
2022-09-06T09:16:45.568Z,100699.78
2022-09-06T09:19:30.722Z,100710.78
2022-09-06T09:22:18.437Z,100711.94
2022-09-06T09:25:07.074Z,100725.84
2022-09-06T09:27:54.499Z,100732.16
2022-09-06T09:30:54.889Z,100755.41
2022-09-06T09:33:39.855Z,100725.88
2022-09-06T09:36:25.316Z,100715.94
2022-09-06T09:39:11.784Z,100718.81
2022-09-06T09:41:56.957Z,100726.69
2022-09-06T09:44:45.463Z,100700.25
2022-09-06T09:47:32.638Z,100693.84
2022-09-06T09:50:34.509Z,100703.97
2022-09-06T09:53:23.126Z,100690.81
2022-09-06T09:56:08.707Z,100689.16
2022-09-06T09:58:56.377Z,100692.88
2022-09-06T10:01:41.777Z,100700.78
2022-09-06T10:07:26.976Z,100680.09
2022-09-06T10:10:22.907Z,100692.97
2022-09-06T10:13:18.927Z,100685.16
2022-09-06T10:16:03.974Z,100688.00
2022-09-06T10:18:49.248Z,100671.91
2022-09-06T10:21:34.610Z,100685.88
2022-09-06T10:24:29.938Z,100675.56
2022-09-06T10:27:25.829Z,100666.66
2022-09-06T10:30:11.328Z,100655.09
2022-09-06T10:33:08.095Z,100656.81
2022-09-06T10:35:58.229Z,100650.34
2022-09-06T10:38:54.179Z,100656.50
2022-09-06T10:41:58.265Z,100654.88
2022-09-06T10:45:18.898Z,100607.69
2022-09-06T10:48:21.764Z,100602.56
2022-09-06T10:51:22.776Z,100602.94
2022-09-06T10:54:16.372Z,100640.41
2022-09-06T11:00:16.539Z,100637.28
2022-09-06T11:06:22.510Z,100648.94
2022-09-06T11:09:21.713Z,100638.81
2022-09-06T11:12:22.461Z,100616.22
2022-09-06T11:15:10.460Z,100621.63
2022-09-06T11:18:09.671Z,100612.81
2022-09-06T11:21:19.449Z,100617.38
2022-09-06T11:24:11.341Z,100605.69
2022-09-06T11:27:34.616Z,100604.19
2022-09-06T11:30:19.843Z,100614.63
2022-09-06T11:33:13.049Z,100612.22
2022-09-06T11:36:16.910Z,100617.28
2022-09-06T11:39:04.601Z,100617.75
2022-09-06T11:41:49.718Z,100623.22
2022-09-06T11:44:57.888Z,100619.94
2022-09-06T11:47:46.362Z,100619.31
2022-09-06T11:50:53.601Z,100624.44
2022-09-06T11:53:48.034Z,100611.34
2022-09-06T11:56:42.740Z,100605.28
2022-09-06T11:59:43.745Z,100622.50
2022-09-06T12:02:38.529Z,100606.72
2022-09-06T12:05:25.398Z,100618.69
2022-09-06T12:08:10.279Z,100607.44
2022-09-06T12:11:43.862Z,100604.81
2022-09-06T12:14:43.918Z,100588.78
2022-09-06T12:17:46.210Z,100581.03
2022-09-06T12:20:53.630Z,100591.09
2022-09-06T12:23:38.493Z,100573.63
2022-09-06T12:26:55.049Z,100576.75
2022-09-06T12:29:50.364Z,100585.47
2022-09-06T12:32:48.152Z,100590.22
2022-09-06T12:38:40.043Z,100578.59
2022-09-06T12:41:28.757Z,100571.59
2022-09-06T12:44:16.112Z,100581.25
2022-09-06T12:47:31.229Z,100557.38
2022-09-06T12:50:21.883Z,100568.59
2022-09-06T12:53:23.396Z,100562.47
2022-09-06T12:56:11.706Z,100551.28
2022-09-06T12:59:22.924Z,100544.44
2022-09-06T13:02:13.833Z,100543.59
2022-09-06T13:05:11.121Z,100537.63
2022-09-06T13:08:00.022Z,100547.97
2022-09-06T13:10:47.395Z,100546.09
2022-09-06T13:13:32.776Z,100548.72
2022-09-06T13:16:36.926Z,100558.06
2022-09-06T13:19:32.909Z,100595.91
2022-09-06T13:22:39.303Z,100555.13
2022-09-06T13:25:26.164Z,100553.97
2022-09-06T13:28:11.491Z,100547.81
2022-09-06T13:31:19.865Z,100528.97
2022-09-06T13:34:04.996Z,100523.66
2022-09-06T13:36:53.210Z,100525.78
2022-09-06T13:39:43.227Z,100534.16
2022-09-06T13:42:29.562Z,100517.88
2022-09-06T13:45:21.380Z,100515.34
2022-09-06T13:48:26.254Z,100517.09
2022-09-06T13:51:11.819Z,100516.44
2022-09-06T13:54:08.725Z,100523.38
2022-09-06T13:56:54.176Z,100518.53
2022-09-06T13:59:39.541Z,100522.97
2022-09-06T14:02:25.112Z,100534.41
2022-09-06T14:05:10.417Z,100517.84
2022-09-06T14:07:55.517Z,100535.16
2022-09-06T14:10:41.197Z,100545.91
2022-09-06T14:13:26.379Z,100527.53
2022-09-06T14:16:12.536Z,100526.72
2022-09-06T14:18:57.951Z,100531.69
2022-09-06T14:21:43.445Z,100534.22
2022-09-06T14:24:28.763Z,100534.13
2022-09-06T14:27:14.103Z,100540.34
2022-09-06T14:29:59.680Z,100526.28
2022-09-06T14:32:44.899Z,100522.91
2022-09-06T14:35:33.915Z,100571.69
2022-09-06T14:38:18.916Z,100495.00
2022-09-06T14:41:05.522Z,100508.41
2022-09-06T14:43:54.452Z,100499.22
2022-09-06T14:46:40.127Z,100494.63
2022-09-06T14:49:25.439Z,100533.09
2022-09-06T14:52:10.921Z,100512.53
2022-09-06T14:54:56.265Z,100517.94
2022-09-06T14:57:41.293Z,100532.09
2022-09-06T15:00:26.745Z,100539.88
2022-09-06T15:03:12.117Z,100513.00
2022-09-06T15:05:57.172Z,100465.22
2022-09-06T15:08:42.607Z,100497.31
2022-09-06T15:11:27.828Z,100497.81
2022-09-06T15:14:23.842Z,100492.00
2022-09-06T15:17:09.398Z,100474.13
2022-09-06T15:19:54.750Z,100472.34
2022-09-06T15:22:40.121Z,100451.44
2022-09-06T15:25:25.500Z,100434.13
2022-09-06T15:28:10.369Z,100470.91
2022-09-06T15:30:55.885Z,100425.16
2022-09-06T15:33:41.597Z,100471.34
2022-09-06T15:36:27.207Z,100417.50
2022-09-06T15:39:12.466Z,100443.44
2022-09-06T15:41:58.240Z,100415.44
2022-09-06T15:44:43.200Z,100424.63
2022-09-06T15:47:28.793Z,100418.78
2022-09-06T15:50:21.950Z,100426.63
2022-09-06T15:53:14.554Z,100418.56
2022-09-06T15:56:00.521Z,100415.91
2022-09-06T15:58:46.036Z,100440.41
2022-09-06T16:01:31.114Z,100434.13
2022-09-06T16:04:16.145Z,100430.19
2022-09-06T16:07:01.050Z,100420.69
2022-09-06T16:09:46.616Z,100392.09
2022-09-06T16:12:31.555Z,100450.88
2022-09-06T16:15:16.951Z,100413.69
2022-09-06T16:18:02.385Z,100430.72
2022-09-06T16:20:47.786Z,100419.22
2022-09-06T16:23:32.998Z,100447.63
2022-09-06T16:26:21.590Z,100465.44
2022-09-06T16:29:08.398Z,100458.03
2022-09-06T16:31:53.957Z,100471.72
2022-09-06T16:34:38.881Z,100462.75
2022-09-06T16:37:24.019Z,100475.22
2022-09-06T16:40:09.626Z,100463.41
2022-09-06T16:42:54.959Z,100447.41
2022-09-06T16:45:40.460Z,100482.91
2022-09-06T16:48:26.640Z,100461.53
2022-09-06T16:51:17.504Z,100462.84
2022-09-06T16:54:02.768Z,100493.09
2022-09-06T16:56:48.492Z,100486.69
2022-09-06T16:59:33.692Z,100490.59
2022-09-06T17:02:19.153Z,100497.28
2022-09-06T17:05:05.449Z,100484.59
2022-09-06T17:07:50.821Z,100474.66
2022-09-06T17:10:38.522Z,100484.81
2022-09-06T17:13:23.971Z,100488.63
2022-09-06T17:16:09.797Z,100490.19
2022-09-06T17:18:55.269Z,100514.22
2022-09-06T17:21:40.520Z,100498.19
2022-09-06T17:24:28.945Z,100521.44
2022-09-06T17:27:14.181Z,100504.72
2022-09-06T17:29:59.486Z,100525.00
2022-09-06T17:32:44.487Z,100513.91
2022-09-06T17:35:29.917Z,100520.16
2022-09-06T17:38:15.593Z,100511.16
2022-09-06T17:41:01.299Z,100522.84
2022-09-06T17:43:46.779Z,100525.22
2022-09-06T17:46:32.293Z,100529.88
2022-09-06T17:49:17.983Z,100529.56
2022-09-06T17:52:03.320Z,100531.19
2022-09-06T17:54:48.440Z,100534.88
2022-09-06T17:57:33.779Z,100531.88
2022-09-06T18:00:19.188Z,100527.53
2022-09-06T18:03:04.532Z,100530.63
2022-09-06T18:05:50.055Z,100516.53
2022-09-06T18:08:36.107Z,100530.78
2022-09-06T18:11:21.350Z,100532.53
2022-09-06T18:14:12.349Z,100528.41
2022-09-06T18:16:57.560Z,100520.75
2022-09-06T18:19:42.888Z,100519.63
2022-09-06T18:22:28.241Z,100520.59
2022-09-06T18:25:13.696Z,100523.31
2022-09-06T18:27:59.028Z,100523.72
2022-09-06T18:30:44.384Z,100526.75
2022-09-06T18:33:30.055Z,100519.34
2022-09-06T18:36:15.662Z,100522.25
2022-09-06T18:39:02.151Z,100521.91
2022-09-06T18:41:47.466Z,100525.59
2022-09-06T18:44:34.319Z,100541.69
2022-09-06T18:47:19.913Z,100540.69
2022-09-06T18:50:05.641Z,100542.09
2022-09-06T18:52:51.157Z,100540.00
2022-09-06T18:55:38.023Z,100545.84
2022-09-06T18:58:23.295Z,100551.47
2022-09-06T19:01:11.765Z,100557.19
2022-09-06T19:03:58.324Z,100556.84
2022-09-06T19:06:44.538Z,100553.47
2022-09-06T19:09:29.526Z,100561.75
2022-09-06T19:12:15.006Z,100567.00
2022-09-06T19:14:59.980Z,100556.53
2022-09-06T19:17:48.306Z,100555.03
2022-09-06T19:20:33.728Z,100563.97
2022-09-06T19:23:19.082Z,100572.56
2022-09-06T19:26:09.557Z,100556.41
2022-09-06T19:29:00.172Z,100561.97
2022-09-06T19:31:46.476Z,100562.53
2022-09-06T19:34:32.364Z,100563.06
2022-09-06T19:37:17.512Z,100564.31
2022-09-06T19:40:03.567Z,100558.19
2022-09-06T19:42:48.730Z,100562.50
2022-09-06T19:45:38.696Z,100555.16
2022-09-06T19:48:24.046Z,100542.69
2022-09-06T19:51:10.069Z,100538.03
2022-09-06T19:53:56.584Z,100536.66
2022-09-06T19:56:42.212Z,100530.09
2022-09-06T19:59:27.803Z,100527.59
2022-09-06T20:02:13.168Z,100518.94
2022-09-06T20:04:58.421Z,100519.94
2022-09-06T20:07:43.899Z,100515.31
2022-09-06T20:10:29.437Z,100514.50
2022-09-06T20:13:14.636Z,100512.81
2022-09-06T20:15:59.584Z,100505.59
2022-09-06T20:18:45.248Z,100494.09
2022-09-06T20:21:31.248Z,100497.97
2022-09-06T20:24:16.589Z,100492.22
2022-09-06T20:27:01.946Z,100490.84
2022-09-06T20:29:47.234Z,100475.56
2022-09-06T20:32:32.405Z,100467.78
2022-09-06T20:35:17.592Z,100462.81
2022-09-06T20:38:03.004Z,100463.63
2022-09-06T20:40:48.303Z,100463.19
2022-09-06T20:43:35.116Z,100464.41
2022-09-06T20:46:22.598Z,100467.34
2022-09-06T20:49:07.741Z,100464.06
2022-09-06T20:51:53.087Z,100474.97
2022-09-06T20:54:38.294Z,100469.34
2022-09-06T20:57:23.415Z,100479.50
2022-09-06T21:00:13.728Z,100468.94
2022-09-06T21:02:59.498Z,100459.25
2022-09-06T21:05:44.804Z,100468.53
2022-09-06T21:08:34.451Z,100462.19
2022-09-06T21:11:20.754Z,100455.84
2022-09-06T21:14:06.352Z,100450.81
2022-09-06T21:16:51.673Z,100445.81
2022-09-06T21:19:36.889Z,100449.25
2022-09-06T21:22:22.176Z,100453.47
2022-09-06T21:25:08.024Z,100457.47
2022-09-06T21:27:55.748Z,100447.72
2022-09-06T21:30:41.324Z,100452.09
2022-09-06T21:33:28.643Z,100455.94
2022-09-06T21:36:16.767Z,100467.59
2022-09-06T21:39:05.844Z,100473.34
2022-09-06T21:41:50.909Z,100478.16
2022-09-06T21:44:36.658Z,100458.28
2022-09-06T21:47:21.875Z,100465.78
2022-09-06T21:50:07.432Z,100465.91
2022-09-06T21:52:52.504Z,100466.88
2022-09-06T21:55:37.977Z,100472.88
2022-09-06T21:58:23.546Z,100467.84
2022-09-06T22:01:08.985Z,100464.09
2022-09-06T22:03:54.491Z,100459.81
2022-09-06T22:06:39.694Z,100464.56
2022-09-06T22:09:25.159Z,100470.84
2022-09-06T22:12:10.328Z,100464.41
2022-09-06T22:14:55.644Z,100467.97
2022-09-06T22:17:41.242Z,100472.13
2022-09-06T22:20:26.309Z,100479.84
2022-09-06T22:23:11.713Z,100488.34
2022-09-06T22:26:19.159Z,100480.06
2022-09-06T22:29:06.822Z,100489.03
2022-09-06T22:31:52.264Z,100490.59
2022-09-06T22:34:37.348Z,100497.03
2022-09-06T22:37:22.741Z,100495.97
2022-09-06T22:40:08.954Z,100473.44
2022-09-06T22:42:53.985Z,100465.03
2022-09-06T22:45:39.334Z,100472.00
2022-09-06T22:48:24.789Z,100455.16
2022-09-06T22:51:10.072Z,100454.72
2022-09-06T22:53:55.471Z,100441.16
2022-09-06T22:56:41.335Z,100441.56
2022-09-06T22:59:26.836Z,100440.47
2022-09-06T23:02:11.919Z,100434.13
2022-09-06T23:04:57.263Z,100441.06
2022-09-06T23:07:42.616Z,100425.59
2022-09-06T23:10:29.087Z,100415.03
2022-09-06T23:13:15.937Z,100420.53
2022-09-06T23:16:06.658Z,100419.28
2022-09-06T23:18:51.968Z,100414.91
2022-09-06T23:36:40.260Z,100424.34
2022-09-06T23:39:29.183Z,100426.84
2022-09-06T23:42:14.861Z,100421.25
2022-09-06T23:45:00.082Z,100419.31
2022-09-06T23:47:45.541Z,100412.31
2022-09-06T23:50:30.816Z,100416.72
2022-09-06T23:53:17.431Z,100410.59
2022-09-06T23:56:03.495Z,100427.75
2022-09-06T23:58:48.615Z,100414.53
